Time;durP1;ratioP1;P1;durP2;ratioP2;P2;SDS_P1;SDS_P2;PMS_P1;PMS_P2;Temp;Humidity;BMP_temperature;BMP_pressure;BME280_temperature;BME280_humidity;BME280_pressure;Samples;Min_cycle;Max_cycle;Signal;HPM_P1;HPM_P2
2023/12/20 00:01:09;;;;;;;;;;;;;;;;;;2198757;67;2248;-23
2023/12/20 00:03:40;;;;;;;;;;;;;;;;;;2200173;67;2748;-23
2023/12/20 00:06:16;;;;;;;;;;;;;;;;;;2201365;59;2514;-23
2023/12/20 00:08:50;;;;;;;;;;;;;;;;;;2198754;67;1889;-23
2023/12/20 00:11:20;;;;;;;;;;;;;;;;;;2202458;59;1834;-23
2023/12/20 00:13:51;;;;;;;;;;;;;;;;;;2203360;59;2673;-23
2023/12/20 00:16:21;;;;;;;;;;;;;;;;;;2201854;59;2160;-23
2023/12/20 00:18:52;;;;;;;;;;;;;;;;;;2202742;59;2009;-23
2023/12/20 00:21:22;;;;;;;;;;;;;;;;;;2202105;67;1990;-23
2023/12/20 00:23:52;;;;;;;;;;;;;;;;;;2202895;67;1893;-23
2023/12/20 00:26:23;;;;;;;;;;;;;;;;;;2198083;67;1831;-23
2023/12/20 00:28:53;;;;;;;;;;;;;;;;;;2201509;67;1771;-23
2023/12/20 00:31:23;;;;;;;;;;;;;;;;;;2201761;59;2434;-23
2023/12/20 00:33:54;;;;;;;;;;;;;;;;;;2203096;59;2508;-23
2023/12/20 00:36:25;;;;;;;;;;;;;;;;;;2202580;59;1887;-23
2023/12/20 00:38:55;;;;;;;;;;;;;;;;;;2201406;59;2245;-23
2023/12/20 00:41:29;;;;;;;;;;;;;;;;;;2200765;59;2096;-22
2023/12/20 00:43:59;;;;;;;;;;;;;;;;;;2201817;67;2220;-22
2023/12/20 00:46:29;;;;;;;;;;;;;;;;;;2200645;67;1814;-23
2023/12/20 00:49:00;;;;;;;;;;;;;;;;;;2201831;59;1984;-23
2023/12/20 00:51:30;;;;;;;;;;;;;;;;;;2201022;67;2049;-23
2023/12/20 00:54:00;;;;;;;;;;;;;;;;;;2201841;59;1822;-22
2023/12/20 00:56:31;;;;;;;;;;;;;;;;;;2201026;59;2473;-23
2023/12/20 00:59:01;;;;;;;;;;;;;;;;;;2200559;59;1971;-23
2023/12/20 01:01:33;;;;;;;;;;;;;;;;;;2200067;59;2813;-23
2023/12/20 01:04:10;;;;;;;;;;;;;;;;;;2202081;59;2000;-23
2023/12/20 01:06:40;;;;;;;;;;;;;;;;;;2200394;59;2508;-23
2023/12/20 01:09:11;;;;;;;;;;;;;;;;;;2198937;67;3154;-23
2023/12/20 01:11:41;;;;;;;;;;;;;;;;;;2201120;59;2677;-23
2023/12/20 01:14:14;;;;;;;;;;;;;;;;;;2203209;59;2674;-23
2023/12/20 01:16:48;;;;;;;;;;;;;;;;;;2202157;59;2310;-23
2023/12/20 01:19:18;;;;;;;;;;;;;;;;;;2198842;59;2322;-22
2023/12/20 01:21:49;;;;;;;;;;;;;;;;;;2198670;59;2817;-23
2023/12/20 01:24:19;;;;;;;;;;;;;;;;;;2203234;59;2380;-23
2023/12/20 01:26:53;;;;;;;;;;;;;;;;;;2199489;59;2321;-23
2023/12/20 01:29:23;;;;;;;;;;;;;;;;;;2197818;59;2421;-23
2023/12/20 01:31:53;;;;;;;;;;;;;;;;;;2202671;59;2918;-23
2023/12/20 01:34:23;;;;;;;;;;;;;;;;;;2201739;59;2364;-23
2023/12/20 01:36:54;;;;;;;;;;;;;;;;;;2202538;59;2244;-23
2023/12/20 01:39:24;;;;;;;;;;;;;;;;;;2201384;59;3264;-23
2023/12/20 01:41:55;;;;;;;;;;;;;;;;;;2203874;59;2730;-23
2023/12/20 01:44:26;;;;;;;;;;;;;;;;;;2200975;59;2003;-23
2023/12/20 01:46:57;;;;;;;;;;;;;;;;;;2203508;59;2440;-23
2023/12/20 01:49:27;;;;;;;;;;;;;;;;;;2199363;59;2757;-23
2023/12/20 01:52:01;;;;;;;;;;;;;;;;;;2203495;59;2103;-23
2023/12/20 01:54:32;;;;;;;;;;;;;;;;;;2202109;59;2251;-23
2023/12/20 01:57:03;;;;;;;;;;;;;;;;;;2202742;59;2422;-23
2023/12/20 01:59:34;;;;;;;;;;;;;;;;;;2202221;59;1898;-23
2023/12/20 02:02:08;;;;;;;;;;;;;;;;;;2202599;67;2249;-23
2023/12/20 02:04:41;;;;;;;;;;;;;;;;;;2202801;67;1894;-23
2023/12/20 02:07:15;;;;;;;;;;;;;;;;;;2203410;59;2253;-23
2023/12/20 02:09:46;;;;;;;;;;;;;;;;;;2202300;59;2191;-23
2023/12/20 02:12:19;;;;;;;;;;;;;;;;;;2201689;60;1903;-23
2023/12/20 02:14:50;;;;;;;;;;;;;;;;;;2199920;59;2951;-23
2023/12/20 02:17:22;;;;;;;;;;;;;;;;;;2203394;67;3110;-23
2023/12/20 02:19:53;;;;;;;;;;;;;;;;;;2199401;59;2914;-23
2023/12/20 02:22:26;;;;;;;;;;;;;;;;;;2202728;59;2467;-23
2023/12/20 02:25:02;;;;;;;;;;;;;;;;;;2202918;59;1815;-23
2023/12/20 02:27:32;;;;;;;;;;;;;;;;;;2195802;59;2697;-23
2023/12/20 02:30:03;;;;;;;;;;;;;;;;;;2202935;59;2778;-23
2023/12/20 02:32:33;;;;;;;;;;;;;;;;;;2200476;59;3399;-23
2023/12/20 02:35:04;;;;;;;;;;;;;;;;;;2203451;67;1775;-23
2023/12/20 02:37:38;;;;;;;;;;;;;;;;;;2201716;59;1935;-23
2023/12/20 02:40:10;;;;;;;;;;;;;;;;;;2202947;59;2408;-23
2023/12/20 02:42:40;;;;;;;;;;;;;;;;;;2202411;67;1924;-23
2023/12/20 02:45:14;;;;;;;;;;;;;;;;;;2203561;67;1843;-23
2023/12/20 02:47:47;;;;;;;;;;;;;;;;;;2198080;67;1851;-22
2023/12/20 02:50:18;;;;;;;;;;;;;;;;;;2199932;67;2616;-23
2023/12/20 02:52:51;;;;;;;;;;;;;;;;;;2199579;59;2250;-23
2023/12/20 02:55:22;;;;;;;;;;;;;;;;;;2199496;59;1789;-23
2023/12/20 02:57:54;;;;;;;;;;;;;;;;;;2198765;59;2581;-23
2023/12/20 03:00:25;;;;;;;;;;;;;;;;;;2194990;59;2357;-22
2023/12/20 03:02:59;;;;;;;;;;;;;;;;;;2197934;59;2496;-23
2023/12/20 03:05:30;;;;;;;;;;;;;;;;;;2197224;59;2847;-23
2023/12/20 03:08:01;;;;;;;;;;;;;;;;;;2202796;59;2682;-23
2023/12/20 03:10:32;;;;;;;;;;;;;;;;;;2197737;59;2938;-22
2023/12/20 03:13:03;;;;;;;;;;;;;;;;;;2199626;59;2292;-23
2023/12/20 03:15:33;;;;;;;;;;;;;;;;;;2198936;59;2815;-23
2023/12/20 03:18:04;;;;;;;;;;;;;;;;;;2202061;59;2468;-23
2023/12/20 03:20:35;;;;;;;;;;;;;;;;;;2198621;59;2569;-23
2023/12/20 03:23:05;;;;;;;;;;;;;;;;;;2199159;59;2372;-23
2023/12/20 03:25:39;;;;;;;;;;;;;;;;;;2202446;59;3302;-23
2023/12/20 03:28:09;;;;;;;;;;;;;;;;;;2199921;59;2772;-23
2023/12/20 03:30:39;;;;;;;;;;;;;;;;;;2202444;59;2550;-23
2023/12/20 03:33:10;;;;;;;;;;;;;;;;;;2203882;59;2431;-23
2023/12/20 03:35:40;;;;;;;;;;;;;;;;;;2202803;59;2190;-23
2023/12/20 03:38:10;;;;;;;;;;;;;;;;;;2204266;59;1822;-22
2023/12/20 03:40:41;;;;;;;;;;;;;;;;;;2202730;59;3056;-23
2023/12/20 03:43:11;;;;;;;;;;;;;;;;;;2204055;59;1905;-23
2023/12/20 03:45:42;;;;;;;;;;;;;;;;;;2203651;59;1708;-23
2023/12/20 03:48:12;;;;;;;;;;;;;;;;;;2200583;59;3196;-23
2023/12/20 03:50:42;;;;;;;;;;;;;;;;;;2203653;59;1953;-23
2023/12/20 03:53:13;;;;;;;;;;;;;;;;;;2205006;59;2836;-23
2023/12/20 03:55:47;;;;;;;;;;;;;;;;;;2201518;67;1799;-23
2023/12/20 03:58:18;;;;;;;;;;;;;;;;;;2202659;67;2176;-24
2023/12/20 04:00:48;;;;;;;;;;;;;;;;;;2201105;59;2455;-23
2023/12/20 04:03:19;;;;;;;;;;;;;;;;;;2205164;59;2440;-23
2023/12/20 04:05:49;;;;;;;;;;;;;;;;;;2204772;59;1998;-31
2023/12/20 04:08:20;;;;;;;;;;;;;;;;;;2199469;67;2882;-24
2023/12/20 04:10:50;;;;;;;;;;;;;;;;;;2201785;59;2732;-24
2023/12/20 04:13:21;;;;;;;;;;;;;;;;;;2203469;59;1668;-24
2023/12/20 04:15:52;;;;;;;;;;;;;;;;;;2202270;59;1922;-25
2023/12/20 04:18:22;;;;;;;;;;;;;;;;;;2203451;67;2361;-25
2023/12/20 04:20:52;;;;;;;;;;;;;;;;;;2202481;64;2664;-24
2023/12/20 04:23:22;;;;;;;;;;;;;;;;;;2198910;67;1925;-24
2023/12/20 04:25:53;;;;;;;;;;;;;;;;;;2202280;59;1883;-25
2023/12/20 04:28:23;;;;;;;;;;;;;;;;;;2202767;59;1887;-25
2023/12/20 04:30:53;;;;;;;;;;;;;;;;;;2198517;67;1876;-25
2023/12/20 04:33:24;;;;;;;;;;;;;;;;;;2202108;59;2705;-25
2023/12/20 04:35:54;;;;;;;;;;;;;;;;;;2201816;67;2306;-25
2023/12/20 04:38:24;;;;;;;;;;;;;;;;;;2202682;67;1963;-25
2023/12/20 04:40:55;;;;;;;;;;;;;;;;;;2198607;59;2403;-25
2023/12/20 04:43:25;;;;;;;;;;;;;;;;;;2201680;59;2439;-25
2023/12/20 04:45:55;;;;;;;;;;;;;;;;;;2198796;59;2423;-25
2023/12/20 04:48:26;;;;;;;;;;;;;;;;;;2203211;59;1892;-25
2023/12/20 04:50:56;;;;;;;;;;;;;;;;;;2201116;59;2358;-25
2023/12/20 04:53:27;;;;;;;;;;;;;;;;;;2202828;59;2858;-25
2023/12/20 04:55:57;;;;;;;;;;;;;;;;;;2201854;59;2844;-26
2023/12/20 04:58:28;;;;;;;;;;;;;;;;;;2203471;59;2540;-26
2023/12/20 05:00:58;;;;;;;;;;;;;;;;;;2198688;59;2438;-26
2023/12/20 05:03:28;;;;;;;;;;;;;;;;;;2201656;67;1950;-26
2023/12/20 05:05:59;;;;;;;;;;;;;;;;;;2201910;59;2294;-26
2023/12/20 05:08:29;;;;;;;;;;;;;;;;;;2199210;59;2273;-26
2023/12/20 05:10:59;;;;;;;;;;;;;;;;;;2201275;59;2833;-26
2023/12/20 05:13:29;;;;;;;;;;;;;;;;;;2199511;59;1887;-26
2023/12/20 05:16:00;;;;;;;;;;;;;;;;;;2199092;59;2359;-26
2023/12/20 05:18:33;;;;;;;;;;;;;;;;;;2198851;67;2584;-26
2023/12/20 05:21:03;;;;;;;;;;;;;;;;;;2203440;59;2608;-26
2023/12/20 05:23:34;;;;;;;;;;;;;;;;;;2202447;59;1813;-26
2023/12/20 05:26:05;;;;;;;;;;;;;;;;;;2202875;59;2502;-26
2023/12/20 05:28:35;;;;;;;;;;;;;;;;;;2201704;59;2509;-26
2023/12/20 05:31:06;;;;;;;;;;;;;;;;;;2202709;59;2160;-26
2023/12/20 05:33:37;;;;;;;;;;;;;;;;;;2199325;59;2141;-25
2023/12/20 05:36:11;;;;;;;;;;;;;;;;;;2202144;67;1780;-24
2023/12/20 05:38:41;;;;;;;;;;;;;;;;;;2202237;66;2333;-24
2023/12/20 05:41:11;;;;;;;;;;;;;;;;;;2200586;67;2004;-25
2023/12/20 05:43:42;;;;;;;;;;;;;;;;;;2201883;67;1999;-25
2023/12/20 05:46:12;;;;;;;;;;;;;;;;;;2202031;67;2649;-24
2023/12/20 05:48:42;;;;;;;;;;;;;;;;;;2202084;59;2432;-25
2023/12/20 05:51:13;;;;;;;;;;;;;;;;;;2203266;59;1982;-25
2023/12/20 05:53:44;;;;;;;;;;;;;;;;;;2201657;59;1752;-24
2023/12/20 05:56:14;;;;;;;;;;;;;;;;;;2200063;59;1946;-24
2023/12/20 05:58:44;;;;;;;;;;;;;;;;;;2196137;59;2300;-24
2023/12/20 06:01:16;;;;;;;;;;;;;;;;;;2202136;67;2273;-24
2023/12/20 06:03:47;;;;;;;;;;;;;;;;;;2201657;67;1845;-24
2023/12/20 06:06:17;;;;;;;;;;;;;;;;;;2199114;59;1841;-25
2023/12/20 06:08:47;;;;;;;;;;;;;;;;;;2202667;67;1454;-24
2023/12/20 06:11:18;;;;;;;;;;;;;;;;;;2202795;59;3402;-24
2023/12/20 06:13:49;;;;;;;;;;;;;;;;;;2198260;59;2505;-24
2023/12/20 06:16:19;;;;;;;;;;;;;;;;;;2198895;59;1746;-24
2023/12/20 06:18:49;;;;;;;;;;;;;;;;;;2201871;59;2166;-24
2023/12/20 06:21:19;;;;;;;;;;;;;;;;;;2199260;59;2574;-24
2023/12/20 06:23:50;;;;;;;;;;;;;;;;;;2202429;59;4062;-24
2023/12/20 06:26:20;;;;;;;;;;;;;;;;;;2202311;59;1817;-24
2023/12/20 06:28:50;;;;;;;;;;;;;;;;;;2202161;59;2411;-24
2023/12/20 06:31:21;;;;;;;;;;;;;;;;;;2199438;59;2523;-25
2023/12/20 06:33:57;;;;;;;;;;;;;;;;;;2198230;59;2590;-24
2023/12/20 06:36:27;;;;;;;;;;;;;;;;;;2202216;59;1820;-24
2023/12/20 06:38:57;;;;;;;;;;;;;;;;;;2201126;59;2254;-24
2023/12/20 06:41:28;;;;;;;;;;;;;;;;;;2202062;62;1997;-24
2023/12/20 06:43:58;;;;;;;;;;;;;;;;;;2201410;60;1852;-24
2023/12/20 06:46:28;;;;;;;;;;;;;;;;;;2198928;67;1836;-24
2023/12/20 06:48:58;;;;;;;;;;;;;;;;;;2198238;67;1956;-24
2023/12/20 06:51:30;;;;;;;;;;;;;;;;;;2202738;67;1959;-24
2023/12/20 06:54:02;;;;;;;;;;;;;;;;;;2198014;67;2069;-24
2023/12/20 06:56:33;;;;;;;;;;;;;;;;;;2201636;59;2047;-24
2023/12/20 06:59:03;;;;;;;;;;;;;;;;;;2201579;67;1926;-24
2023/12/20 07:01:33;;;;;;;;;;;;;;;;;;2201933;67;2160;-24
2023/12/20 07:04:04;;;;;;;;;;;;;;;;;;2201185;59;2351;-23
2023/12/20 07:06:34;;;;;;;;;;;;;;;;;;2203743;59;1920;-24
2023/12/20 07:09:05;;;;;;;;;;;;;;;;;;2202151;59;1922;-24
2023/12/20 07:11:35;;;;;;;;;;;;;;;;;;2202701;59;2095;-23
2023/12/20 07:14:05;;;;;;;;;;;;;;;;;;2202261;59;2717;-24
2023/12/20 07:16:36;;;;;;;;;;;;;;;;;;2202890;59;2748;-24
2023/12/20 07:19:06;;;;;;;;;;;;;;;;;;2199204;59;3691;-24
2023/12/20 07:21:36;;;;;;;;;;;;;;;;;;2202856;59;2841;-24
2023/12/20 07:24:07;;;;;;;;;;;;;;;;;;2200003;59;2080;-24
2023/12/20 07:26:40;;;;;;;;;;;;;;;;;;2204059;59;2286;-24
2023/12/20 07:29:10;;;;;;;;;;;;;;;;;;2201468;59;2311;-24
2023/12/20 07:31:43;;;;;;;;;;;;;;;;;;2201072;59;2508;-24
2023/12/20 07:34:14;;;;;;;;;;;;;;;;;;2202230;59;3867;-24
2023/12/20 07:36:45;;;;;;;;;;;;;;;;;;2201332;59;3195;-24
2023/12/20 07:39:15;;;;;;;;;;;;;;;;;;2202937;59;1737;-24
2023/12/20 07:41:46;;;;;;;;;;;;;;;;;;2196623;59;2408;-24
2023/12/20 07:44:16;;;;;;;;;;;;;;;;;;2201749;59;2546;-24
2023/12/20 07:46:48;;;;;;;;;;;;;;;;;;2198311;67;1851;-24
2023/12/20 07:49:18;;;;;;;;;;;;;;;;;;2199390;59;2432;-24
2023/12/20 07:51:49;;;;;;;;;;;;;;;;;;2197861;67;2722;-24
2023/12/20 07:54:20;;;;;;;;;;;;;;;;;;2201905;59;2385;-24
2023/12/20 07:56:50;;;;;;;;;;;;;;;;;;2202483;59;2309;-24
2023/12/20 07:59:20;;;;;;;;;;;;;;;;;;2202040;59;2895;-24
2023/12/20 08:01:51;;;;;;;;;;;;;;;;;;2199993;59;2938;-24
2023/12/20 08:04:22;;;;;;;;;;;;;;;;;;2201786;59;2485;-24
2023/12/20 08:06:52;;;;;;;;;;;;;;;;;;2199889;59;2572;-25
2023/12/20 08:09:22;;;;;;;;;;;;;;;;;;2203527;59;2655;-24
2023/12/20 08:11:53;;;;;;;;;;;;;;;;;;2202057;59;2380;-24
2023/12/20 08:14:23;;;;;;;;;;;;;;;;;;2202852;59;2614;-24
2023/12/20 08:16:53;;;;;;;;;;;;;;;;;;2202666;59;2734;-23
2023/12/20 08:19:26;;;;;;;;;;;;;;;;;;2202754;59;2365;-24
2023/12/20 08:21:57;;;;;;;;;;;;;;;;;;2199312;59;2860;-24
2023/12/20 08:24:27;;;;;;;;;;;;;;;;;;2202523;59;3101;-24
2023/12/20 08:26:57;;;;;;;;;;;;;;;;;;2200397;59;2530;-24
2023/12/20 08:29:27;;;;;;;;;;;;;;;;;;2198652;67;2654;-23
2023/12/20 08:31:59;;;;;;;;;;;;;;;;;;2202158;59;2473;-23
2023/12/20 08:34:29;;;;;;;;;;;;;;;;;;2200478;59;2471;-24
2023/12/20 08:36:59;;;;;;;;;;;;;;;;;;2202359;59;2529;-24
2023/12/20 08:39:29;;;;;;;;;;;;;;;;;;2202974;59;2255;-23
2023/12/20 08:42:00;;;;;;;;;;;;;;;;;;2202286;59;2768;-24
2023/12/20 08:44:30;;;;;;;;;;;;;;;;;;2203845;59;2628;-24
2023/12/20 08:47:00;;;;;;;;;;;;;;;;;;2202477;59;2500;-23
2023/12/20 08:49:31;;;;;;;;;;;;;;;;;;2201603;59;2832;-24
2023/12/20 08:52:01;;;;;;;;;;;;;;;;;;2202001;59;2552;-23
2023/12/20 08:54:31;;;;;;;;;;;;;;;;;;2202326;59;2778;-25
2023/12/20 08:57:06;;;;;;;;;;;;;;;;;;2202638;59;2362;-25
2023/12/20 08:59:36;;;;;;;;;;;;;;;;;;2201137;59;3300;-25
2023/12/20 09:02:07;;;;;;;;;;;;;;;;;;2203396;59;2707;-25
2023/12/20 09:04:38;;;;;;;;;;;;;;;;;;2203866;59;2569;-25
2023/12/20 09:07:21;;;;;;;;;;;;;;;;;;2200172;59;2358;-25
2023/12/20 09:09:54;;;;;;;;;;;;;;;;;;2204612;59;3084;-25
2023/12/20 09:12:28;;;;;;;;;;;;;;;;;;2204476;59;2253;-25
2023/12/20 09:14:58;;;;;;;;;;;;;;;;;;2200036;59;1984;-25
2023/12/20 09:17:28;;;;;;;;;;;;;;;;;;2201036;59;2586;-25
2023/12/20 09:20:02;;;;;;;;;;;;;;;;;;2202215;59;2832;-25
2023/12/20 09:22:33;;;;;;;;;;;;;;;;;;2200069;59;2338;-25
2023/12/20 09:25:04;;;;;;;;;;;;;;;;;;2202550;59;2318;-25
2023/12/20 09:27:34;;;;;;;;;;;;;;;;;;2202586;59;2592;-25
2023/12/20 09:30:05;;;;;;;;;;;;;;;;;;2201593;59;1787;-25
2023/12/20 09:32:35;;;;;;;;;;;;;;;;;;2200101;59;3209;-24
2023/12/20 09:35:06;;;;;;;;;;;;;;;;;;2195741;59;2163;-23
2023/12/20 09:37:36;;;;;;;;;;;;;;;;;;2203263;59;1973;-23
2023/12/20 09:40:09;;;;;;;;;;;;;;;;;;2202680;59;2383;-24
2023/12/20 09:42:45;;;;;;;;;;;;;;;;;;2201977;59;2050;-24
2023/12/20 09:45:18;;;;;;;;;;;;;;;;;;2201161;59;2496;-23
2023/12/20 09:47:55;;;;;;;;;;;;;;;;;;2201291;59;2277;-23
2023/12/20 09:50:25;;;;;;;;;;;;;;;;;;2201998;59;2964;-23
2023/12/20 09:52:59;;;;;;;;;;;;;;;;;;2202098;59;2230;-23
2023/12/20 09:55:33;;;;;;;;;;;;;;;;;;2202956;59;2368;-23
2023/12/20 09:58:03;;;;;;;;;;;;;;;;;;2201039;59;2063;-23
2023/12/20 10:00:34;;;;;;;;;;;;;;;;;;2198004;59;2828;-23
2023/12/20 10:03:06;;;;;;;;;;;;;;;;;;2199289;59;2579;-23
2023/12/20 10:05:36;;;;;;;;;;;;;;;;;;2200787;59;2269;-23
2023/12/20 10:08:06;;;;;;;;;;;;;;;;;;2199936;59;2193;-23
2023/12/20 10:10:37;;;;;;;;;;;;;;;;;;2201363;59;1788;-23
2023/12/20 10:13:08;;;;;;;;;;;;;;;;;;2200319;59;1923;-23
2023/12/20 10:15:39;;;;;;;;;;;;;;;;;;2201272;59;2608;-23
2023/12/20 10:18:10;;;;;;;;;;;;;;;;;;2200055;67;2652;-23
2023/12/20 10:20:41;;;;;;;;;;;;;;;;;;2197530;59;2456;-23
2023/12/20 10:23:13;;;;;;;;;;;;;;;;;;2197266;59;2820;-25
2023/12/20 10:25:55;;;;;;;;;;;;;;;;;;2198508;59;2434;-25
2023/12/20 10:28:27;;;;;;;;;;;;;;;;;;2201583;67;1754;-25
2023/12/20 10:30:57;;;;;;;;;;;;;;;;;;2198646;59;2397;-25
2023/12/20 10:33:28;;;;;;;;;;;;;;;;;;2201655;59;2114;-25
2023/12/20 10:35:58;;;;;;;;;;;;;;;;;;2201483;59;2358;-25
2023/12/20 10:38:30;;;;;;;;;;;;;;;;;;2201469;59;1813;-25
2023/12/20 10:41:01;;;;;;;;;;;;;;;;;;2200459;59;1934;-25
2023/12/20 10:43:32;;;;;;;;;;;;;;;;;;2201392;67;2175;-25
2023/12/20 10:46:03;;;;;;;;;;;;;;;;;;2201663;67;2415;-25
2023/12/20 10:48:34;;;;;;;;;;;;;;;;;;2201533;67;2265;-25
2023/12/20 10:51:05;;;;;;;;;;;;;;;;;;2200836;67;1798;-25
2023/12/20 10:53:40;;;;;;;;;;;;;;;;;;2198311;67;1985;-25
2023/12/20 10:56:12;;;;;;;;;;;;;;;;;;2201012;59;2383;-25
2023/12/20 10:58:43;;;;;;;;;;;;;;;;;;2198032;59;2130;-25
2023/12/20 11:01:21;;;;;;;;;;;;;;;;;;2194398;59;3060;-25
2023/12/20 11:03:52;;;;;;;;;;;;;;;;;;2201321;59;1764;-25
2023/12/20 11:06:35;;;;;;;;;;;;;;;;;;2201781;59;2023;-25
2023/12/20 11:09:10;;;;;;;;;;;;;;;;;;2201151;59;2275;-25
2023/12/20 11:11:59;;;;;;;;;;;;;;;;;;2201086;59;1795;-25
2023/12/20 11:14:34;;;;;;;;;;;;;;;;;;2202171;59;2472;-25
2023/12/20 11:17:06;;;;;;;;;;;;;;;;;;2198828;59;2561;-25
2023/12/20 11:19:37;;;;;;;;;;;;;;;;;;2202595;59;2133;-25
2023/12/20 11:22:08;;;;;;;;;;;;;;;;;;2201493;59;2237;-25
2023/12/20 11:24:44;;;;;;;;;;;;;;;;;;2202459;59;2732;-25
2023/12/20 11:27:14;;;;;;;;;;;;;;;;;;2202144;59;3341;-25
2023/12/20 11:29:51;;;;;;;;;;;;;;;;;;2201733;59;2290;-25
2023/12/20 11:32:21;;;;;;;;;;;;;;;;;;2202080;59;2101;-25
2023/12/20 11:34:59;;;;;;;;;;;;;;;;;;2203692;59;2279;-26
2023/12/20 11:37:31;;;;;;;;;;;;;;;;;;2201572;59;1819;-26
2023/12/20 11:40:06;;;;;;;;;;;;;;;;;;2198766;59;2084;-26
2023/12/20 11:42:40;;;;;;;;;;;;;;;;;;2199325;59;1948;-26
2023/12/20 11:45:19;;;;;;;;;;;;;;;;;;2201642;59;2007;-26
2023/12/20 11:47:55;;;;;;;;;;;;;;;;;;2203530;59;2310;-26
2023/12/20 11:50:26;;;;;;;;;;;;;;;;;;2203067;59;2044;-26
2023/12/20 11:52:56;;;;;;;;;;;;;;;;;;2202508;59;1798;-26
2023/12/20 11:55:26;;;;;;;;;;;;;;;;;;2202573;59;1694;-26
2023/12/20 11:57:57;;;;;;;;;;;;;;;;;;2202137;59;1952;-26
2023/12/20 12:00:27;;;;;;;;;;;;;;;;;;2199471;59;2527;-26
2023/12/20 12:02:58;;;;;;;;;;;;;;;;;;2201967;59;3017;-26
2023/12/20 12:05:30;;;;;;;;;;;;;;;;;;2200799;59;2984;-26
2023/12/20 12:08:00;;;;;;;;;;;;;;;;;;2201377;67;2761;-26
2023/12/20 12:10:31;;;;;;;;;;;;;;;;;;2202990;59;1817;-26
2023/12/20 12:13:01;;;;;;;;;;;;;;;;;;2202663;59;1898;-26
2023/12/20 12:15:31;;;;;;;;;;;;;;;;;;2200688;59;1850;-25
2023/12/20 12:18:02;;;;;;;;;;;;;;;;;;2199311;67;2724;-25
2023/12/20 12:20:32;;;;;;;;;;;;;;;;;;2199135;59;2732;-25
2023/12/20 12:23:06;;;;;;;;;;;;;;;;;;2200898;59;3268;-26
2023/12/20 12:25:39;;;;;;;;;;;;;;;;;;2202187;59;2886;-26
2023/12/20 12:28:10;;;;;;;;;;;;;;;;;;2201808;60;2032;-26
2023/12/20 12:30:40;;;;;;;;;;;;;;;;;;2200113;67;1764;-26
2023/12/20 12:33:11;;;;;;;;;;;;;;;;;;2197527;59;2517;-26
2023/12/20 12:35:41;;;;;;;;;;;;;;;;;;2199731;59;1859;-26
2023/12/20 12:38:12;;;;;;;;;;;;;;;;;;2201575;67;1833;-26
2023/12/20 12:40:43;;;;;;;;;;;;;;;;;;2199056;59;2235;-27
2023/12/20 12:43:13;;;;;;;;;;;;;;;;;;2202811;59;1745;-26
2023/12/20 12:45:44;;;;;;;;;;;;;;;;;;2198209;67;2131;-26
2023/12/20 12:48:14;;;;;;;;;;;;;;;;;;2203358;59;1966;-26
2023/12/20 12:50:47;;;;;;;;;;;;;;;;;;2203626;67;1790;-26
2023/12/20 12:53:18;;;;;;;;;;;;;;;;;;2202030;59;2161;-26
2023/12/20 12:55:48;;;;;;;;;;;;;;;;;;2202226;59;2735;-26
2023/12/20 12:58:18;;;;;;;;;;;;;;;;;;2198517;59;1867;-26
2023/12/20 13:00:48;;;;;;;;;;;;;;;;;;2203101;59;1937;-26
2023/12/20 13:03:19;;;;;;;;;;;;;;;;;;2199539;59;3380;-26
2023/12/20 13:05:49;;;;;;;;;;;;;;;;;;2203262;67;1763;-26
2023/12/20 13:08:20;;;;;;;;;;;;;;;;;;2202716;59;2046;-26
2023/12/20 13:10:50;;;;;;;;;;;;;;;;;;2204073;67;2152;-26
2023/12/20 13:13:20;;;;;;;;;;;;;;;;;;2202738;59;1980;-26
2023/12/20 13:15:52;;;;;;;;;;;;;;;;;;2203447;59;1782;-26
2023/12/20 13:18:23;;;;;;;;;;;;;;;;;;2201113;59;1755;-26
2023/12/20 13:20:53;;;;;;;;;;;;;;;;;;2201549;67;2000;-26
2023/12/20 13:23:23;;;;;;;;;;;;;;;;;;2199974;59;2118;-26
2023/12/20 13:25:54;;;;;;;;;;;;;;;;;;2199636;59;1825;-26
2023/12/20 13:28:24;;;;;;;;;;;;;;;;;;2201873;59;1799;-25
2023/12/20 13:30:54;;;;;;;;;;;;;;;;;;2202069;59;2385;-25
2023/12/20 13:33:25;;;;;;;;;;;;;;;;;;2200749;59;2398;-26
2023/12/20 13:35:56;;;;;;;;;;;;;;;;;;2202566;59;1842;-26
2023/12/20 13:38:26;;;;;;;;;;;;;;;;;;2201122;59;1925;-25
2023/12/20 13:40:58;;;;;;;;;;;;;;;;;;2202035;59;1996;-26
2023/12/20 13:43:28;;;;;;;;;;;;;;;;;;2200663;59;2364;-26
2023/12/20 13:45:59;;;;;;;;;;;;;;;;;;2202336;67;1752;-26
2023/12/20 13:48:29;;;;;;;;;;;;;;;;;;2201282;67;1908;-25
2023/12/20 13:50:59;;;;;;;;;;;;;;;;;;2202184;67;2076;-25
2023/12/20 13:53:30;;;;;;;;;;;;;;;;;;2197206;67;2398;-26
2023/12/20 13:56:00;;;;;;;;;;;;;;;;;;2202918;67;1805;-25
2023/12/20 13:58:30;;;;;;;;;;;;;;;;;;2201196;59;2124;-26
2023/12/20 14:01:01;;;;;;;;;;;;;;;;;;2202556;59;1958;-26
2023/12/20 14:03:31;;;;;;;;;;;;;;;;;;2199505;59;3053;-26
2023/12/20 14:06:01;;;;;;;;;;;;;;;;;;2199310;59;2882;-25
2023/12/20 14:08:31;;;;;;;;;;;;;;;;;;2198643;59;1852;-25
2023/12/20 14:11:02;;;;;;;;;;;;;;;;;;2199639;59;2776;-25
2023/12/20 14:13:32;;;;;;;;;;;;;;;;;;2201282;59;2981;-25
2023/12/20 14:16:03;;;;;;;;;;;;;;;;;;2201532;59;2484;-26
2023/12/20 14:18:34;;;;;;;;;;;;;;;;;;2200569;59;2331;-26
2023/12/20 14:21:06;;;;;;;;;;;;;;;;;;2201242;59;2038;-26
2023/12/20 14:23:36;;;;;;;;;;;;;;;;;;2197031;63;2309;-25
2023/12/20 14:26:06;;;;;;;;;;;;;;;;;;2200231;59;2331;-25
2023/12/20 14:28:36;;;;;;;;;;;;;;;;;;2193141;59;5357;-25
2023/12/20 14:31:07;;;;;;;;;;;;;;;;;;2199326;59;2512;-25
2023/12/20 14:33:38;;;;;;;;;;;;;;;;;;2196221;59;2714;-25
2023/12/20 14:36:09;;;;;;;;;;;;;;;;;;2198640;59;2500;-25
2023/12/20 14:38:39;;;;;;;;;;;;;;;;;;2200415;59;2598;-25
2023/12/20 14:41:09;;;;;;;;;;;;;;;;;;2199368;59;2654;-25
2023/12/20 14:43:40;;;;;;;;;;;;;;;;;;2196291;59;3551;-25
2023/12/20 14:46:10;;;;;;;;;;;;;;;;;;2182090;59;6999;-25
2023/12/20 14:48:40;;;;;;;;;;;;;;;;;;2198149;59;1959;-25
2023/12/20 14:51:11;;;;;;;;;;;;;;;;;;2185320;60;1879;-25
2023/12/20 14:53:42;;;;;;;;;;;;;;;;;;2190220;59;2242;-25
2023/12/20 14:56:12;;;;;;;;;;;;;;;;;;2187754;59;1820;-25
2023/12/20 14:58:43;;;;;;;;;;;;;;;;;;2187700;60;1964;-25
2023/12/20 15:01:13;;;;;;;;;;;;;;;;;;2199148;60;1992;-25
2023/12/20 15:03:43;;;;;;;;;;;;;;;;;;2188576;67;3014;-25
2023/12/20 15:06:13;;;;;;;;;;;;;;;;;;2195978;59;3353;-25
2023/12/20 15:08:43;;;;;;;;;;;;;;;;;;2188108;67;1789;-25
2023/12/20 15:11:14;;;;;;;;;;;;;;;;;;2196083;59;2495;-25
2023/12/20 15:13:47;;;;;;;;;;;;;;;;;;2186030;59;2009;-25
2023/12/20 15:16:17;;;;;;;;;;;;;;;;;;2198267;59;3404;-25
2023/12/20 15:18:47;;;;;;;;;;;;;;;;;;2185503;59;2307;-25
2023/12/20 15:21:18;;;;;;;;;;;;;;;;;;2185898;59;2616;-25
2023/12/20 15:23:54;;;;;;;;;;;;;;;;;;2186890;67;2076;-25
2023/12/20 15:26:24;;;;;;;;;;;;;;;;;;2194386;59;2487;-25
2023/12/20 15:28:55;;;;;;;;;;;;;;;;;;2186952;67;2656;-25
2023/12/20 15:31:26;;;;;;;;;;;;;;;;;;2196547;59;2393;-25
2023/12/20 15:33:57;;;;;;;;;;;;;;;;;;2185439;59;2473;-25
2023/12/20 15:36:27;;;;;;;;;;;;;;;;;;2196939;59;2213;-25
2023/12/20 15:38:57;;;;;;;;;;;;;;;;;;2198021;59;1930;-25
2023/12/20 15:41:27;;;;;;;;;;;;;;;;;;2185660;67;1967;-25
2023/12/20 15:43:58;;;;;;;;;;;;;;;;;;2201190;67;1856;-24
2023/12/20 15:46:28;;;;;;;;;;;;;;;;;;2197617;67;1958;-25
2023/12/20 15:48:58;;;;;;;;;;;;;;;;;;2186146;67;1727;-24
2023/12/20 15:51:28;;;;;;;;;;;;;;;;;;2185561;63;1943;-24
2023/12/20 15:54:03;;;;;;;;;;;;;;;;;;2187034;59;2427;-26
2023/12/20 15:56:33;;;;;;;;;;;;;;;;;;2190612;59;2427;-25
2023/12/20 15:59:04;;;;;;;;;;;;;;;;;;2186286;67;2143;-25
2023/12/20 16:01:35;;;;;;;;;;;;;;;;;;2185448;59;2376;-26
2023/12/20 16:04:05;;;;;;;;;;;;;;;;;;2186779;67;2371;-25
2023/12/20 16:06:37;;;;;;;;;;;;;;;;;;2183947;67;3396;-25
2023/12/20 16:09:07;;;;;;;;;;;;;;;;;;2197701;59;2645;-26
2023/12/20 16:11:39;;;;;;;;;;;;;;;;;;2185660;60;2649;-25
2023/12/20 16:14:13;;;;;;;;;;;;;;;;;;2199573;59;1952;-26
2023/12/20 16:16:43;;;;;;;;;;;;;;;;;;2197784;59;1977;-26
2023/12/20 16:19:14;;;;;;;;;;;;;;;;;;2185224;59;2012;-26
2023/12/20 16:21:47;;;;;;;;;;;;;;;;;;2185999;67;1936;-26
2023/12/20 16:24:17;;;;;;;;;;;;;;;;;;2197759;67;2390;-26
2023/12/20 16:26:48;;;;;;;;;;;;;;;;;;2186755;67;1836;-26
2023/12/20 16:29:18;;;;;;;;;;;;;;;;;;2185761;59;1870;-26
2023/12/20 16:31:48;;;;;;;;;;;;;;;;;;2191141;67;2296;-26
2023/12/20 16:34:18;;;;;;;;;;;;;;;;;;2200011;59;2471;-26
2023/12/20 16:36:50;;;;;;;;;;;;;;;;;;2187268;59;2026;-26
2023/12/20 16:39:22;;;;;;;;;;;;;;;;;;2198274;59;1959;-25
2023/12/20 16:41:54;;;;;;;;;;;;;;;;;;2202351;59;2795;-25
2023/12/20 16:44:24;;;;;;;;;;;;;;;;;;2200266;59;2097;-25
2023/12/20 16:46:55;;;;;;;;;;;;;;;;;;2188962;59;2487;-26
2023/12/20 16:49:26;;;;;;;;;;;;;;;;;;2197669;59;2137;-25
2023/12/20 16:51:57;;;;;;;;;;;;;;;;;;2195638;67;2635;-25
2023/12/20 16:54:29;;;;;;;;;;;;;;;;;;2197083;59;2506;-25
2023/12/20 16:56:59;;;;;;;;;;;;;;;;;;2187279;67;2210;-25
2023/12/20 16:59:32;;;;;;;;;;;;;;;;;;2197513;59;1726;-26
2023/12/20 17:02:03;;;;;;;;;;;;;;;;;;2187375;67;1928;-26
2023/12/20 17:04:35;;;;;;;;;;;;;;;;;;2186641;59;1913;-26
2023/12/20 17:07:06;;;;;;;;;;;;;;;;;;2186137;59;3376;-26
2023/12/20 17:09:36;;;;;;;;;;;;;;;;;;2186815;60;2366;-26
2023/12/20 17:12:07;;;;;;;;;;;;;;;;;;2187032;59;1662;-26
2023/12/20 17:14:38;;;;;;;;;;;;;;;;;;2186672;59;2721;-26
2023/12/20 17:17:08;;;;;;;;;;;;;;;;;;2198477;67;2570;-26
2023/12/20 17:19:39;;;;;;;;;;;;;;;;;;2186874;59;1886;-26
2023/12/20 17:22:10;;;;;;;;;;;;;;;;;;2187015;59;2860;-26
2023/12/20 17:24:40;;;;;;;;;;;;;;;;;;2200080;59;2444;-26
2023/12/20 17:27:11;;;;;;;;;;;;;;;;;;2187694;59;2046;-26
2023/12/20 17:29:41;;;;;;;;;;;;;;;;;;2186439;67;2726;-26